Time;durP1;ratioP1;P1;durP2;ratioP2;P2;SDS_P1;SDS_P2;PMS_P1;PMS_P2;Temp;Humidity;BMP_temperature;BMP_pressure;BME280_temperature;BME280_humidity;BME280_pressure;Samples;Min_cycle;Max_cycle;Signal;HPM_P1;HPM_P2
2023/12/28 00:00:22;;;;;;;10.30;5.50;;;3.70;90.10;;;2.57;94.85;98028.09;5021227;28;21196;-67
2023/12/28 00:02:51;;;;;;;7.00;5.07;;;3.50;90.10;;;2.71;94.09;98031.94;5030782;28;20463;-67
2023/12/28 00:05:21;;;;;;;6.00;4.90;;;3.60;90.50;;;2.71;93.39;98014.13;5023593;28;20452;-67
2023/12/28 00:07:47;;;;;;;5.80;5.10;;;3.70;90.10;;;2.68;94.05;98014.47;5010614;28;20479;-67
2023/12/28 00:10:15;;;;;;;5.67;5.00;;;3.70;89.50;;;2.64;93.79;98015.75;5031270;28;21222;-67
2023/12/28 00:12:42;;;;;;;5.10;4.60;;;3.70;89.20;;;2.52;93.87;98009.91;5011359;28;21004;-68
2023/12/28 00:15:10;;;;;;;6.23;4.87;;;3.60;88.60;;;2.50;95.17;98012.78;4989736;28;20462;-68
2023/12/28 00:17:37;;;;;;;5.00;4.50;;;3.50;90.40;;;2.51;94.59;98011.78;5023063;28;20504;-68
2023/12/28 00:20:06;;;;;;;5.17;4.67;;;3.50;90.20;;;2.42;95.50;98015.41;5024265;28;20544;-68
2023/12/28 00:22:37;;;;;;;5.63;5.00;;;3.40;90.30;;;2.40;95.00;98017.41;5011194;28;20999;-68
2023/12/28 00:25:05;;;;;;;7.60;5.20;;;3.40;90.60;;;2.39;94.55;98024.56;5021522;28;20465;-68
2023/12/28 00:27:33;;;;;;;6.07;5.50;;;3.40;90.40;;;2.49;93.67;98026.25;5014290;28;20552;-68
2023/12/28 00:30:02;;;;;;;5.43;4.93;;;3.50;90.20;;;2.09;93.22;97968.16;5027107;28;20914;-68
2023/12/28 00:32:29;;;;;;;5.90;4.60;;;3.50;89.20;;;2.38;93.78;98009.56;5012952;28;20961;-69
2023/12/28 00:34:56;;;;;;;5.73;4.83;;;3.50;88.80;;;2.39;93.03;98013.06;5031207;28;20855;-68
2023/12/28 00:37:24;;;;;;;5.50;4.43;;;3.40;88.40;;;1.77;93.50;97944.91;5012558;28;20520;-67
2023/12/28 00:39:55;;;;;;;5.20;4.70;;;3.30;88.10;;;2.34;92.38;98000.22;5030888;28;20480;-67
2023/12/28 00:42:23;;;;;;;9.73;4.33;;;3.40;88.30;;;2.54;90.59;98010.59;5012601;28;20558;-67
2023/12/28 00:44:50;;;;;;;4.90;4.23;;;3.50;87.40;;;2.48;89.20;97977.41;5010168;28;20462;-67
2023/12/28 00:47:17;;;;;;;4.83;4.30;;;3.60;85.60;;;2.53;88.06;98001.75;5010793;28;20527;-68
2023/12/28 00:49:45;;;;;;;5.27;4.07;;;3.60;84.70;;;2.57;87.85;97996.09;5030916;28;20458;-68
2023/12/28 00:52:12;;;;;;;4.67;4.10;;;3.60;84.60;;;2.63;87.24;98006.94;5010106;28;20469;-68
2023/12/28 00:54:39;;;;;;;4.33;3.33;;;3.60;84.20;;;2.65;87.27;97999.59;5021360;28;20450;-68
2023/12/28 00:57:08;;;;;;;7.10;4.50;;;3.70;84.00;;;2.65;86.91;97993.41;5011263;28;20484;-68
2023/12/28 00:59:35;;;;;;;5.17;3.90;;;3.70;83.30;;;2.69;86.09;98010.78;5022287;28;20485;-68
2023/12/28 01:02:02;;;;;;;6.93;4.00;;;3.70;83.20;;;2.68;85.61;98007.28;5024702;28;20699;-68
2023/12/28 01:04:33;;;;;;;4.70;3.80;;;3.80;82.80;;;2.73;85.57;98025.47;5022499;28;20451;-68
2023/12/28 01:07:02;;;;;;;3.77;3.47;;;3.80;82.60;;;2.61;85.71;98016.09;4992638;28;20458;-68
2023/12/28 01:09:29;;;;;;;4.43;3.20;;;3.70;82.40;;;2.62;85.30;98023.94;5000268;28;20545;-68
2023/12/28 01:11:56;;;;;;;4.73;3.80;;;3.70;82.10;;;2.54;84.67;98008.75;5015750;28;20475;-68
2023/12/28 01:14:25;;;;;;;4.53;3.73;;;3.60;82.00;;;2.63;84.29;98027.44;4997706;28;20462;-68
2023/12/28 01:16:52;;;;;;;3.83;3.40;;;3.70;82.00;;;2.52;85.37;98026.78;5003157;28;20519;-68
2023/12/28 01:19:21;;;;;;;4.50;3.60;;;3.60;82.00;;;2.46;85.46;98026.59;4999995;28;20844;-68
2023/12/28 01:21:48;;;;;;;3.90;3.33;;;3.40;82.00;;;2.40;85.57;98022.75;5018114;28;20461;-68
2023/12/28 01:24:16;;;;;;;4.43;4.03;;;3.40;82.40;;;2.50;84.69;98023.44;5010036;28;20866;-68
2023/12/28 01:26:43;;;;;;;5.23;3.60;;;3.50;82.10;;;2.45;84.02;98016.91;5015299;28;20524;-68
2023/12/28 01:29:11;;;;;;;5.53;3.70;;;3.50;81.80;;;2.52;83.47;98026.78;5015664;28;20523;-68
2023/12/28 01:31:40;;;;;;;4.00;3.37;;;3.50;81.20;;;2.46;82.51;98034.59;5014297;28;20576;-68
2023/12/28 01:34:09;;;;;;;6.00;3.53;;;3.50;80.80;;;2.48;82.02;98025.41;5019890;28;20455;-68
2023/12/28 01:36:36;;;;;;;4.47;3.33;;;3.40;80.70;;;2.67;80.24;98013.59;5023581;28;20462;-68
2023/12/28 01:39:04;;;;;;;3.70;3.30;;;3.70;79.80;;;2.82;79.35;98016.47;5026106;28;20473;-68
2023/12/28 01:41:31;;;;;;;4.93;3.40;;;3.90;79.00;;;2.84;78.86;98029.63;5029533;28;20938;-68
2023/12/28 01:43:59;;;;;;;4.17;3.73;;;3.90;78.70;;;2.80;78.92;98023.78;4993705;28;20464;-68
2023/12/28 01:46:26;;;;;;;5.40;3.80;;;3.90;78.50;;;2.74;78.64;98028.97;5022709;28;20461;-68
2023/12/28 01:48:56;;;;;;;6.20;4.10;;;3.80;78.40;;;2.77;78.13;98037.47;5019481;28;20469;-68
2023/12/28 01:51:25;;;;;;;4.43;3.53;;;3.80;78.10;;;2.65;78.01;98010.28;5021906;28;20462;-68
2023/12/28 01:53:53;;;;;;;4.07;3.50;;;3.80;77.70;;;2.73;77.89;98049.47;5017601;28;20485;-69
2023/12/28 01:56:22;;;;;;;3.80;3.20;;;3.80;77.60;;;2.50;78.93;98063.44;5023201;28;20972;-68
2023/12/28 01:58:54;;;;;;;7.00;3.80;;;3.60;77.70;;;2.55;78.83;98066.44;5028579;28;20507;-66
2023/12/28 02:01:22;;;;;;;4.20;3.70;;;3.60;78.00;;;2.59;78.80;98044.78;5021295;28;20522;-66
2023/12/28 02:03:51;;;;;;;4.53;4.13;;;3.60;78.10;;;2.69;78.20;98046.28;5005038;28;20466;-67
2023/12/28 02:06:24;;;;;;;4.40;3.57;;;3.70;77.80;;;2.78;77.49;98054.31;5006140;28;20465;-67
2023/12/28 02:08:52;;;;;;;5.00;3.27;;;3.70;77.50;;;2.83;77.03;98047.50;5027848;28;20461;-67
2023/12/28 02:11:20;;;;;;;3.77;3.40;;;3.80;77.10;;;2.86;75.73;98042.81;5003477;28;20455;-68
2023/12/28 02:13:48;;;;;;;5.10;3.43;;;3.90;76.50;;;3.04;74.75;98029.34;5000738;28;20453;-68
2023/12/28 02:16:22;;;;;;;4.30;3.90;;;4.10;75.80;;;3.25;73.47;98052.81;5022024;28;20475;-67
2023/12/28 02:18:53;;;;;;;3.40;3.10;;;4.20;75.10;;;3.31;71.98;98046.84;5024540;28;20449;-67
2023/12/28 02:21:22;;;;;;;6.40;3.80;;;4.40;74.50;;;3.37;71.19;98038.13;5021327;28;20464;-68
2023/12/28 02:23:51;;;;;;;3.93;3.63;;;4.50;73.90;;;3.36;71.51;98039.13;5018670;28;21017;-67
2023/12/28 02:26:21;;;;;;;6.07;3.93;;;4.50;73.70;;;3.40;71.17;98039.66;5004465;28;20470;-68
2023/12/28 02:28:50;;;;;;;4.47;3.60;;;4.50;73.30;;;3.45;70.93;98036.47;5006681;28;20452;-67
2023/12/28 02:31:23;;;;;;;4.67;3.40;;;4.50;72.90;;;3.49;70.32;98038.66;5030271;28;20572;-67
2023/12/28 02:33:59;;;;;;;4.47;4.07;;;4.60;72.70;;;3.51;69.97;98030.44;5016031;28;20456;-68
2023/12/28 02:36:28;;;;;;;4.07;2.93;;;4.60;72.40;;;3.05;70.08;97964.25;5008474;28;20972;-69
2023/12/28 02:38:58;;;;;;;4.10;3.70;;;4.60;72.20;;;3.39;69.55;98009.41;5023027;28;20811;-68
2023/12/28 02:41:27;;;;;;;4.00;3.60;;;4.60;71.90;;;3.59;68.92;98027.78;5027261;28;20462;-68
2023/12/28 02:43:55;;;;;;;4.03;3.67;;;4.70;71.50;;;3.52;69.50;98032.97;5011962;28;20458;-67
2023/12/28 02:46:22;;;;;;;4.80;3.10;;;4.60;71.50;;;3.46;69.06;98028.28;5028931;28;20454;-67
2023/12/28 02:48:52;;;;;;;4.27;3.87;;;4.50;71.40;;;3.47;69.43;98037.94;5031180;28;20457;-67
2023/12/28 02:51:20;;;;;;;3.10;2.87;;;4.50;71.60;;;3.50;69.97;98039.47;5027772;28;20466;-67
2023/12/28 02:53:49;;;;;;;4.53;3.50;;;4.50;71.30;;;3.11;69.60;97971.56;5026309;28;20463;-67
2023/12/28 02:56:16;;;;;;;4.40;3.10;;;4.50;71.40;;;3.45;69.15;98036.47;5017815;28;20453;-67
2023/12/28 02:58:45;;;;;;;4.30;3.90;;;4.50;71.30;;;3.37;70.05;98034.66;5021218;28;20449;-66
2023/12/28 03:01:13;;;;;;;4.23;3.57;;;4.50;71.40;;;3.48;69.78;98026.25;5016090;28;20458;-68
2023/12/28 03:03:41;;;;;;;3.90;3.50;;;4.50;71.10;;;3.50;69.75;98034.13;4989609;28;20450;-68
2023/12/28 03:06:08;;;;;;;4.40;3.50;;;4.60;70.90;;;3.49;69.17;98025.28;5008490;28;20451;-68
2023/12/28 03:08:35;;;;;;;4.40;3.63;;;4.60;70.80;;;3.45;69.41;98031.94;5026635;28;20469;-68
2023/12/28 03:11:03;;;;;;;5.90;4.30;;;4.60;70.90;;;3.49;69.58;98040.47;5008711;28;20454;-68
2023/12/28 03:13:31;;;;;;;4.10;2.67;;;4.50;70.70;;;3.42;69.08;98032.28;4994721;28;20461;-68
2023/12/28 03:16:00;;;;;;;3.53;3.23;;;4.50;70.70;;;3.43;69.25;98038.47;5020862;28;20467;-68
2023/12/28 03:18:27;;;;;;;4.67;3.17;;;4.50;70.90;;;3.36;69.23;98028.47;5014350;28;20874;-67
2023/12/28 03:20:55;;;;;;;5.57;3.70;;;4.50;70.80;;;3.43;69.90;98038.47;5023199;28;20486;-67
2023/12/28 03:23:22;;;;;;;4.07;2.97;;;4.50;70.80;;;3.41;69.24;98035.97;5030510;28;20447;-67
2023/12/28 03:25:51;;;;;;;4.73;3.50;;;4.50;70.60;;;3.43;69.76;98038.47;5009080;28;20493;-66
2023/12/28 03:28:20;;;;;;;4.47;3.43;;;4.50;70.70;;;3.40;70.01;98053.81;5030789;28;20480;-68
2023/12/28 03:30:47;;;;;;;4.50;3.63;;;4.50;70.60;;;3.38;69.52;98052.34;4994607;28;20475;-68
2023/12/28 03:33:16;;;;;;;3.80;3.43;;;4.50;70.70;;;3.38;69.77;98047.81;5019956;28;21023;-68
2023/12/28 03:35:43;;;;;;;4.90;3.70;;;4.50;70.60;;;3.34;69.15;98037.66;5023819;28;20450;-68
2023/12/28 03:38:10;;;;;;;4.03;3.30;;;4.50;70.50;;;3.35;69.58;98042.81;4998245;28;20454;-67
2023/12/28 03:40:37;;;;;;;4.97;4.23;;;4.50;70.60;;;3.42;69.75;98047.50;5028256;28;20533;-68
2023/12/28 03:43:05;;;;;;;4.37;3.77;;;4.50;70.60;;;3.43;69.07;98047.31;5003048;28;20544;-68
2023/12/28 03:45:33;;;;;;;3.93;3.53;;;4.50;70.60;;;3.36;69.55;98049.81;5011833;28;20931;-68
2023/12/28 03:48:00;;;;;;;3.50;3.20;;;4.40;70.60;;;3.34;69.54;98041.16;5024691;28;20466;-67
2023/12/28 03:50:29;;;;;;;4.27;3.87;;;4.40;70.70;;;3.33;70.31;98050.16;5022114;28;20948;-67
2023/12/28 03:52:58;;;;;;;4.27;3.83;;;4.40;70.70;;;3.26;69.79;98039.31;5010934;28;20442;-68
2023/12/28 03:55:26;;;;;;;4.20;3.80;;;4.40;70.60;;;3.43;69.03;98055.31;5014731;28;20557;-69
2023/12/28 03:57:53;;;;;;;7.50;4.13;;;4.50;70.50;;;3.38;69.28;98047.81;5030546;28;20446;-68
2023/12/28 04:00:23;;;;;;;3.93;3.53;;;4.40;70.40;;;3.35;69.11;98050.00;5009646;28;20471;-68
2023/12/28 04:02:50;;;;;;;4.00;3.70;;;4.40;70.40;;;3.41;69.27;98052.00;5027563;28;20442;-67
2023/12/28 04:05:18;;;;;;;4.23;3.60;;;4.50;70.40;;;3.39;69.46;98038.81;5005183;28;20986;-67
2023/12/28 04:07:47;;;;;;;3.63;2.97;;;4.40;70.40;;;3.45;69.11;98037.28;5022669;28;20462;-67
2023/12/28 04:10:14;;;;;;;4.63;3.27;;;4.50;70.30;;;3.48;69.16;98041.47;4985258;28;20454;-68
2023/12/28 04:12:42;;;;;;;5.17;3.60;;;4.50;70.10;;;3.51;69.05;98041.97;5022765;28;20505;-67
2023/12/28 04:15:10;;;;;;;5.80;3.50;;;4.60;70.10;;;3.52;68.04;98042.78;5024256;28;20515;-68
2023/12/28 04:17:37;;;;;;;5.57;3.80;;;4.50;69.90;;;3.53;68.98;98037.28;5026289;28;20478;-67
2023/12/28 04:20:07;;;;;;;3.73;3.37;;;4.50;70.00;;;3.59;68.67;98030.44;5028184;28;20482;-68
2023/12/28 04:22:34;;;;;;;3.97;3.47;;;4.60;70.10;;;3.57;68.70;98035.13;5023762;28;20458;-67
2023/12/28 04:25:04;;;;;;;4.20;3.80;;;4.60;70.00;;;3.62;68.45;98032.75;5023611;28;20453;-67
2023/12/28 04:27:31;;;;;;;4.20;3.67;;;4.60;69.90;;;3.61;68.11;98030.25;5000341;28;20536;-67
2023/12/28 04:29:59;;;;;;;4.53;3.90;;;4.60;69.70;;;3.61;68.64;98033.78;5029273;28;20476;-68
2023/12/28 04:32:27;;;;;;;5.53;4.20;;;4.60;69.80;;;3.63;68.72;98039.78;5009865;28;21083;-67
2023/12/28 04:34:55;;;;;;;4.97;3.47;;;4.60;69.60;;;3.59;68.57;98038.47;5027828;28;20468;-68
2023/12/28 04:37:22;;;;;;;7.73;3.83;;;4.60;69.70;;;3.75;68.21;98026.88;4986834;28;20484;-67
2023/12/28 04:39:49;;;;;;;5.00;3.67;;;4.70;69.60;;;3.66;67.61;98031.41;5026462;28;20534;-68
2023/12/28 04:42:18;;;;;;;4.80;3.77;;;4.70;69.60;;;3.71;67.57;98030.06;5007454;28;20929;-68
2023/12/28 04:44:47;;;;;;;4.10;3.40;;;4.70;69.60;;;3.69;68.23;98038.25;5029953;28;20462;-68
2023/12/28 04:47:14;;;;;;;5.73;3.97;;;4.70;69.60;;;3.37;67.14;97963.34;5023639;28;20459;-68
2023/12/28 04:49:41;;;;;;;5.10;3.53;;;4.80;69.60;;;3.74;67.42;98030.56;4998159;28;20571;-68
2023/12/28 04:52:09;;;;;;;4.60;3.70;;;4.80;69.80;;;3.80;67.43;98021.03;5019840;28;20460;-67
2023/12/28 04:54:36;;;;;;;3.90;3.50;;;4.80;69.40;;;3.66;67.35;98019.91;5004685;28;20486;-67
2023/12/28 04:57:04;;;;;;;3.87;3.53;;;4.80;69.20;;;3.84;67.54;98022.34;5007776;28;20455;-67
2023/12/28 04:59:33;;;;;;;4.37;3.60;;;4.90;69.20;;;3.86;66.88;98033.69;5024254;28;20462;-66
2023/12/28 05:02:00;;;;;;;4.00;2.87;;;4.90;69.00;;;3.75;67.33;98023.38;5009133;28;20458;-68
2023/12/28 05:04:27;;;;;;;3.87;3.43;;;4.90;68.90;;;3.88;67.24;98030.84;4988317;28;20450;-68
2023/12/28 05:06:55;;;;;;;4.40;3.63;;;4.90;68.90;;;3.94;66.85;98036.34;5005659;28;20825;-68
2023/12/28 05:09:22;;;;;;;4.47;3.83;;;5.00;68.70;;;3.96;66.44;98034.31;5016503;28;20557;-68
2023/12/28 05:11:50;;;;;;;6.60;3.40;;;5.00;68.60;;;4.03;66.68;98045.16;5026030;28;20470;-70
2023/12/28 05:14:17;;;;;;;5.40;3.63;;;5.00;68.40;;;4.08;66.23;98047.31;4988111;28;20468;-68
2023/12/28 05:16:48;;;;;;;5.63;3.50;;;5.10;68.40;;;3.69;66.10;97988.31;5019849;28;20470;-67
2023/12/28 05:19:16;;;;;;;3.80;3.50;;;5.10;68.30;;;4.19;65.71;98049.63;5025421;28;20469;-67
2023/12/28 05:21:44;;;;;;;4.53;3.37;;;5.20;68.30;;;4.33;65.21;98061.44;5004338;28;20569;-67
2023/12/28 05:24:14;;;;;;;4.37;2.97;;;5.30;68.10;;;4.03;65.81;98004.25;5022761;28;20462;-68
2023/12/28 05:26:43;;;;;;;3.93;3.50;;;5.30;68.00;;;4.25;65.95;98054.28;5023988;28;20453;-69
2023/12/28 05:29:11;;;;;;;3.80;3.50;;;5.30;67.90;;;4.38;65.87;98052.88;5021021;28;20466;-68
2023/12/28 05:31:39;;;;;;;5.27;3.50;;;5.40;68.00;;;4.48;65.34;98066.03;5010014;28;20469;-68
2023/12/28 05:34:17;;;;;;;4.50;3.23;;;5.40;67.60;;;4.54;65.11;98058.16;5005244;28;20469;-68
2023/12/28 05:36:46;;;;;;;4.03;3.60;;;5.50;67.70;;;4.51;64.36;98074.56;5026437;28;20449;-68
2023/12/28 05:39:14;;;;;;;8.03;4.30;;;5.50;67.50;;;4.56;65.11;98076.72;5029781;28;21009;-68
2023/12/28 05:41:42;;;;;;;4.40;3.53;;;5.50;67.70;;;4.59;64.96;98075.50;5023036;28;20481;-68
2023/12/28 05:44:10;;;;;;;4.57;3.70;;;5.50;67.50;;;4.65;64.24;98077.50;5019556;28;20454;-68
2023/12/28 05:46:37;;;;;;;4.03;3.57;;;5.60;67.50;;;4.67;64.14;98078.16;5023235;28;20939;-68
2023/12/28 05:49:05;;;;;;;5.20;3.20;;;5.60;67.60;;;4.87;63.89;98088.41;5020993;28;20454;-68
2023/12/28 05:51:39;;;;;;;3.50;3.00;;;5.70;67.30;;;4.81;63.96;98096.16;5026466;28;20596;-68
2023/12/28 05:54:09;;;;;;;6.20;4.20;;;5.70;67.30;;;4.87;64.54;98099.13;5004621;28;20613;-69
2023/12/28 05:56:36;;;;;;;4.03;3.63;;;5.70;67.40;;;4.81;64.19;98098.81;5005880;28;20444;-68
2023/12/28 05:59:04;;;;;;;4.03;3.70;;;5.70;67.40;;;4.94;64.09;98095.56;5025848;28;20457;-67
2023/12/28 06:01:31;;;;;;;3.93;3.53;;;5.70;67.50;;;5.06;63.08;98103.19;5022973;28;20565;-67
2023/12/28 06:03:58;;;;;;;4.30;3.80;;;5.90;66.90;;;5.01;63.70;98078.78;5021368;28;20601;-68
2023/12/28 06:06:26;;;;;;;4.27;3.77;;;6.00;67.00;;;5.04;63.65;98103.34;5019392;28;20447;-67
2023/12/28 06:08:54;;;;;;;4.77;4.10;;;6.00;66.60;;;5.09;63.60;98095.63;5001846;28;20477;-68
2023/12/28 06:11:21;;;;;;;4.67;4.13;;;6.00;67.00;;;5.27;62.66;98101.69;5017255;28;20454;-67
2023/12/28 06:13:49;;;;;;;5.70;4.57;;;6.10;66.50;;;5.27;62.79;98107.03;5026390;28;20829;-67
2023/12/28 06:16:16;;;;;;;4.40;4.00;;;6.20;66.40;;;5.22;63.00;98115.63;5008716;28;20518;-68
2023/12/28 06:18:43;;;;;;;6.07;4.80;;;6.20;66.30;;;5.28;62.98;98112.25;5006207;28;20482;-69
2023/12/28 06:21:11;;;;;;;4.23;3.83;;;6.20;66.40;;;5.35;62.71;98113.19;5027347;28;20479;-68
2023/12/28 06:23:39;;;;;;;3.93;3.60;;;6.30;66.00;;;5.27;62.94;98115.09;4995255;28;20866;-68
2023/12/28 06:26:08;;;;;;;5.10;4.03;;;6.30;66.00;;;5.27;62.82;98115.94;5017358;28;20455;-68
2023/12/28 06:28:35;;;;;;;4.07;3.60;;;6.30;65.80;;;5.34;62.57;98108.81;5009123;28;20525;-68
2023/12/28 06:31:04;;;;;;;4.27;3.87;;;6.30;65.60;;;5.35;62.23;98113.19;5002026;28;20458;-68
2023/12/28 06:33:31;;;;;;;5.83;3.97;;;6.30;65.40;;;5.39;61.71;98098.44;5011756;28;20459;-68
2023/12/28 06:35:59;;;;;;;4.87;3.60;;;6.40;65.20;;;5.24;62.60;98103.72;5023729;28;20452;-68
2023/12/28 06:38:27;;;;;;;4.87;4.20;;;6.30;65.30;;;5.35;61.46;98109.69;5017739;28;20466;-68
2023/12/28 06:40:54;;;;;;;5.53;4.10;;;6.30;65.10;;;5.44;61.84;98121.16;5025886;28;20478;-68
2023/12/28 06:43:22;;;;;;;5.50;3.70;;;6.30;65.10;;;5.41;61.37;98110.81;5018486;28;20528;-68
2023/12/28 06:45:51;;;;;;;4.87;3.40;;;6.40;65.00;;;5.55;61.73;98112.69;5000059;28;20811;-68
2023/12/28 06:48:19;;;;;;;4.20;3.27;;;6.40;65.10;;;5.58;61.72;98111.47;5000132;28;20458;-68
2023/12/28 06:50:47;;;;;;;4.40;4.00;;;6.50;65.10;;;5.49;61.88;98108.91;4986664;28;20459;-68
2023/12/28 06:53:15;;;;;;;4.67;3.40;;;6.50;64.90;;;5.57;61.20;98112.50;4999305;28;20502;-69
2023/12/28 06:55:42;;;;;;;4.63;3.97;;;6.50;64.90;;;5.53;61.48;98114.69;4994145;28;20868;-66
2023/12/28 06:58:12;;;;;;;3.30;3.00;;;6.50;65.00;;;5.46;62.23;98119.13;4983520;28;20482;-67
2023/12/28 07:00:41;;;;;;;5.30;4.20;;;6.50;65.10;;;5.53;61.91;98133.47;5002382;28;20558;-69
2023/12/28 07:03:09;;;;;;;5.60;4.30;;;6.50;65.00;;;5.58;62.27;98127.56;4997232;28;20508;-69
2023/12/28 07:05:36;;;;;;;4.40;4.00;;;6.50;65.60;;;5.72;62.42;98129.44;5021613;28;20543;-68
2023/12/28 07:08:03;;;;;;;7.17;3.83;;;6.60;65.80;;;5.83;61.94;98128.19;5015453;28;20478;-70
2023/12/28 07:10:34;;;;;;;4.30;3.90;;;6.70;65.60;;;5.75;61.96;98136.31;5016616;28;20516;-69
2023/12/28 07:13:01;;;;;;;5.30;4.37;;;6.70;65.50;;;5.86;62.40;98141.25;5010003;28;20513;-69
2023/12/28 07:15:29;;;;;;;4.20;3.80;;;6.70;65.60;;;5.70;61.97;98130.66;5028772;28;20454;-68
2023/12/28 07:17:57;;;;;;;4.43;3.80;;;6.80;65.30;;;5.83;62.68;98149.63;5015843;28;20451;-70
2023/12/28 07:20:27;;;;;;;4.17;3.50;;;6.80;65.50;;;6.03;61.20;98154.53;5022458;28;20998;-69
2023/12/28 07:22:55;;;;;;;6.00;3.80;;;6.90;65.20;;;6.00;61.25;98158.38;5026267;28;20999;-68
2023/12/28 07:25:22;;;;;;;5.23;4.40;;;7.00;65.10;;;6.02;61.04;98151.00;5028640;28;20464;-68
2023/12/28 07:27:50;;;;;;;5.23;4.00;;;7.00;64.90;;;6.22;60.56;98150.47;5032057;28;20762;-69
2023/12/28 07:30:17;;;;;;;4.67;3.90;;;7.00;64.60;;;5.99;61.16;98145.13;5022423;28;20469;-69
2023/12/28 07:32:47;;;;;;;5.40;4.13;;;7.00;64.60;;;5.96;61.15;98141.78;5021697;28;20443;-69
2023/12/28 07:35:17;;;;;;;4.87;3.67;;;7.00;64.80;;;6.02;60.92;98152.88;5011332;28;20468;-68
2023/12/28 07:37:45;;;;;;;6.07;3.97;;;7.10;64.60;;;6.14;61.50;98163.97;5005553;28;20457;-70
2023/12/28 07:40:14;;;;;;;4.07;3.53;;;7.00;64.80;;;6.31;60.65;98175.38;5024661;28;20444;-68
2023/12/28 07:42:41;;;;;;;4.93;4.37;;;7.10;64.70;;;6.41;60.05;98165.19;5013732;28;20497;-69
2023/12/28 07:45:10;;;;;;;4.70;4.07;;;7.20;64.60;;;6.30;60.18;98162.97;5007209;28;20451;-69
2023/12/28 07:47:37;;;;;;;4.10;3.20;;;7.20;64.30;;;6.42;60.29;98164.16;5015852;28;20458;-69
2023/12/28 07:50:06;;;;;;;5.20;3.93;;;7.30;64.50;;;6.55;60.08;98166.22;5022435;28;20479;-70
2023/12/28 07:52:35;;;;;;;4.13;3.40;;;7.30;64.60;;;6.42;60.15;98166.84;5025027;28;20459;-69
2023/12/28 07:55:02;;;;;;;4.20;3.63;;;7.30;64.40;;;6.56;60.46;98169.72;5027081;28;20508;-70
2023/12/28 07:57:34;;;;;;;6.87;4.77;;;7.30;64.40;;;6.56;60.13;98167.88;5023591;28;20478;-69
2023/12/28 08:00:03;;;;;;;5.00;3.83;;;7.40;64.50;;;6.39;60.71;98172.59;5011750;28;20578;-69
2023/12/28 08:02:30;;;;;;;5.83;4.60;;;7.40;64.40;;;6.57;60.44;98168.69;5008704;28;20471;-69
2023/12/28 08:04:59;;;;;;;4.80;4.40;;;7.40;64.60;;;6.49;60.20;98173.16;5020881;28;20864;-69
2023/12/28 08:07:26;;;;;;;3.87;3.57;;;7.40;64.40;;;6.44;60.57;98161.31;5017350;28;20450;-70
2023/12/28 08:10:01;;;;;;;8.57;4.00;;;7.30;64.40;;;6.37;60.57;98155.84;5026040;28;20462;-70
2023/12/28 08:12:33;;;;;;;5.70;4.47;;;7.30;64.20;;;6.38;60.40;98161.03;5010921;28;20447;-69
2023/12/28 08:15:06;;;;;;;6.70;4.03;;;7.30;64.00;;;6.45;60.18;98147.72;5015751;28;20952;-69
2023/12/28 08:17:34;;;;;;;4.23;3.60;;;7.40;64.20;;;6.49;60.03;98162.41;5007565;28;20541;-70
2023/12/28 08:20:01;;;;;;;5.73;4.10;;;7.40;64.10;;;6.54;60.26;98152.97;5025536;28;20435;-70
2023/12/28 08:22:33;;;;;;;5.77;3.70;;;7.40;64.00;;;6.48;59.98;98157.22;4993455;28;20634;-70
2023/12/28 08:25:02;;;;;;;4.50;3.70;;;7.50;63.80;;;6.45;60.21;98154.91;5002460;28;20827;-70
2023/12/28 08:27:29;;;;;;;4.53;3.97;;;7.40;63.80;;;6.48;60.33;98160.75;5022655;28;20458;-70
2023/12/28 08:29:57;;;;;;;4.93;4.00;;;7.40;63.80;;;6.60;59.96;98149.56;5023095;28;20462;-69
2023/12/28 08:32:26;;;;;;;4.87;4.23;;;7.50;63.80;;;6.68;59.49;98160.19;5023492;28;20538;-69
2023/12/28 08:34:53;;;;;;;6.10;4.13;;;7.50;63.80;;;6.66;60.06;98154.97;5009166;28;20458;-69
2023/12/28 08:37:21;;;;;;;4.17;3.80;;;7.60;64.00;;;6.69;60.01;98163.72;5021839;28;20470;-69
2023/12/28 08:39:49;;;;;;;4.67;3.60;;;7.60;63.90;;;6.52;60.53;98162.03;5006764;28;20967;-68
2023/12/28 08:42:18;;;;;;;5.40;4.20;;;7.50;63.90;;;6.57;60.13;98163.31;5001441;28;21031;-70
2023/12/28 08:44:48;;;;;;;4.30;3.90;;;7.50;63.60;;;6.62;61.84;98160.94;5012725;28;20450;-69
2023/12/28 08:47:16;;;;;;;5.50;4.47;;;7.50;64.50;;;6.70;60.38;98163.50;5022340;28;20452;-69
2023/12/28 08:49:43;;;;;;;5.70;3.97;;;7.70;64.40;;;6.58;60.38;98143.50;5026123;28;20459;-69
2023/12/28 08:52:11;;;;;;;5.80;4.13;;;7.60;64.00;;;6.75;62.56;98153.06;5020505;28;20538;-70
2023/12/28 08:54:38;;;;;;;6.30;4.27;;;7.60;65.30;;;6.81;62.02;98170.25;5020159;28;20542;-70
2023/12/28 08:57:05;;;;;;;5.20;4.00;;;7.70;65.20;;;6.71;61.85;98180.47;5023482;28;20454;-70
2023/12/28 08:59:36;;;;;;;4.57;4.17;;;7.60;64.70;;;6.87;60.86;98180.25;5021256;28;20435;-69
2023/12/28 09:02:03;;;;;;;4.77;3.83;;;7.70;65.00;;;6.65;60.64;98120.28;5016772;28;20474;-70
2023/12/28 09:04:32;;;;;;;5.83;3.70;;;7.80;64.70;;;7.25;61.81;98181.94;5017360;28;20455;-70
2023/12/28 09:07:02;;;;;;;8.70;4.80;;;8.00;65.90;;;7.07;62.07;98159.00;5019353;28;20495;-69
2023/12/28 09:09:32;;;;;;;6.60;4.40;;;8.00;65.50;;;7.22;62.32;98176.94;5029332;28;20466;-70
2023/12/28 09:11:59;;;;;;;6.63;4.23;;;8.10;65.90;;;7.38;60.27;98170.47;5012217;28;20948;-69
2023/12/28 09:14:29;;;;;;;9.43;4.93;;;8.20;65.00;;;7.27;58.71;98169.13;5022479;28;20533;-69
2023/12/28 09:16:59;;;;;;;6.90;4.83;;;8.20;64.00;;;7.40;60.96;98173.00;5022180;28;20517;-69
2023/12/28 09:19:27;;;;;;;7.67;4.50;;;8.20;65.30;;;7.19;58.86;98177.28;5027449;28;20534;-69
2023/12/28 09:21:55;;;;;;;4.33;3.73;;;8.10;63.60;;;6.95;59.56;98165.88;5023465;28;20570;-69
2023/12/28 09:24:24;;;;;;;6.23;4.30;;;8.10;63.40;;;7.19;59.26;98177.28;5024406;28;20456;-69
2023/12/28 09:26:51;;;;;;;7.73;3.87;;;8.10;63.40;;;7.09;59.39;98167.72;5013186;28;20505;-69
2023/12/28 09:29:19;;;;;;;5.07;4.00;;;8.10;63.50;;;7.42;58.48;98174.44;5011177;28;20974;-70
2023/12/28 09:31:47;;;;;;;4.70;3.83;;;8.20;63.40;;;7.27;58.64;98185.25;5018937;28;20509;-69
2023/12/28 09:34:17;;;;;;;5.93;4.43;;;8.20;63.30;;;7.30;58.98;98186.75;5025248;28;20546;-69
2023/12/28 09:36:44;;;;;;;6.23;4.37;;;8.20;63.30;;;7.41;59.73;98185.41;4999302;28;20976;-69
2023/12/28 09:39:13;;;;;;;5.10;4.13;;;8.20;63.90;;;7.55;59.78;98186.34;5020080;28;20757;-70
2023/12/28 09:41:48;;;;;;;5.30;4.30;;;8.40;64.30;;;7.72;58.96;98177.00;5006728;28;20565;-69
2023/12/28 09:44:18;;;;;;;4.93;3.57;;;8.50;64.30;;;7.86;59.92;98174.44;5023668;28;20545;-69
2023/12/28 09:46:46;;;;;;;6.43;4.40;;;8.60;64.30;;;7.72;57.88;98160.06;5018091;28;20534;-70
2023/12/28 09:49:15;;;;;;;4.60;4.17;;;8.70;63.10;;;7.71;58.75;98174.53;5009602;28;20590;-69
2023/12/28 09:51:43;;;;;;;6.60;4.73;;;8.60;63.30;;;7.84;58.46;98177.34;5024580;28;20459;-69
2023/12/28 09:54:13;;;;;;;4.40;3.97;;;8.60;63.30;;;7.47;58.87;98179.25;5018891;28;20483;-70
2023/12/28 09:56:41;;;;;;;4.87;4.30;;;8.50;63.20;;;7.41;59.33;98169.28;5005090;28;20477;-70
2023/12/28 09:59:09;;;;;;;5.17;4.37;;;8.40;63.60;;;7.55;59.18;98175.59;5003429;28;20448;-69
2023/12/28 10:01:37;;;;;;;5.70;5.03;;;8.40;63.80;;;7.63;59.13;98178.19;5025025;28;20480;-70
2023/12/28 10:04:07;;;;;;;4.43;3.97;;;8.50;63.70;;;7.58;59.66;98165.31;5020119;28;20543;-70
2023/12/28 10:06:38;;;;;;;4.60;4.00;;;8.40;63.90;;;7.31;60.20;98148.91;5003234;28;20452;-69
2023/12/28 10:09:08;;;;;;;5.80;4.40;;;8.40;63.90;;;7.61;60.10;98158.72;5008109;28;21004;-68
2023/12/28 10:11:35;;;;;;;5.20;4.63;;;8.40;64.20;;;7.80;59.29;98173.34;5015173;28;20459;-69
2023/12/28 10:14:06;;;;;;;11.30;4.30;;;8.50;64.20;;;7.97;59.63;98162.34;5004304;28;20968;-69
2023/12/28 10:16:33;;;;;;;7.50;4.17;;;8.80;64.20;;;8.13;58.81;98162.03;5027194;28;20939;-70
2023/12/28 10:19:06;;;;;;;7.40;5.27;;;8.80;64.30;;;8.02;60.03;98157.19;4998851;28;20869;-70
2023/12/28 10:21:34;;;;;;;5.67;5.07;;;8.90;64.30;;;7.81;58.94;98097.03;5011583;28;20966;-69
2023/12/28 10:24:11;;;;;;;4.37;3.80;;;9.00;64.20;;;8.02;58.99;98159.88;4993481;28;20991;-68
2023/12/28 10:26:42;;;;;;;5.10;4.30;;;8.90;64.30;;;8.18;59.37;98143.44;5013710;28;20453;-69
2023/12/28 10:29:10;;;;;;;6.57;4.67;;;9.00;64.40;;;8.12;59.56;98148.75;4996604;28;20466;-69
2023/12/28 10:31:40;;;;;;;5.63;4.60;;;9.00;64.10;;;8.25;59.01;98148.84;4976046;28;20534;-70
2023/12/28 10:34:09;;;;;;;5.03;4.40;;;9.00;64.00;;;8.17;59.35;98147.16;5025438;28;20535;-70
2023/12/28 10:36:39;;;;;;;5.57;4.67;;;9.00;64.20;;;8.32;58.97;98154.28;5023667;28;20467;-69